Big Lake, Indiana
Current Conditions -  °F | °C
As of 4:54 AM on Sunday 28 Dec 2014 (Local Time) from KFWA Reporting Station
Overcast Overcast  
Wind Chill: 28°   Ceiling: 2400
Heat Index: 33°   Visibility: 10mi
Dew Point: 30°   Wind: 6mph
Humidity: 89%   Direction: 260°W
Pressure: 30.08"   Gusts: NA
Location:  41.1479°N, 85.4772°W
Report Text: KFWA 280954Z 26005KT 10SM OVC024 01/M01 A3008 RMK AO2 SLP192 T00061011
Loading
Personal Weather Stations






























Interactive Weather Map New forecast layout! Learn more

10-Day Weather Forecast

Advertisements
Track Severe Weather on mobile